Flight Track Log - Related Links

Times and Time Zones

All times are in EDT time to prevent confusion due to time zone crossing. See the CMP807 flight status page for this flight to view local times or setup timezone preferences in your user account.

Time Position Orientation Groundspeed Altitude Reporting Facility
EDT Latitude Longitude Course Direction KTS MPH feet Rate Location/Type
Tue 02:27:00 AM 40.4446 -73.5946 143° Southeast  Level FlightAware Approximate
Tue 02:27:04 AM 40.6447 -73.6731 223° Southwest 189 217 2,700  Level New York Center
Tue 02:28:00 AM 40.3435 -73.5101 143° Southeast  Level FlightAware Approximate
Tue 02:28:04 AM 40.5853 -73.6403 157° South 216 249 4,900  Level New York Center
Tue 02:29:00 AM 40.2558 -73.4116 123° Southeast  Level FlightAware Approximate
Tue 02:29:04 AM 40.5094 -73.5881 152° Southeast 264 304 7,500  Level New York Center
Tue 02:30:00 AM 40.1578 -73.3161 146° Southeast  Level FlightAware Approximate
Tue 02:31:00 AM 40.0592 -73.2790 223° Southwest  Level FlightAware Approximate
Tue 02:31:05 AM 40.3581 -73.5253 162° South 289 333 11,200  Level Washington Center
Tue 02:36:18 AM 40.0592 -73.6841 202° Southwest 377 434 23,700 2,600 Climbing FlightAware ADS-B (KPHL)
Tue 02:37:58 AM 39.9611 -73.7351 202° Southwest 399 459 29,100 2,096 Climbing FlightAware ADS-B
Tue 02:39:04 AM 39.7223 -73.8584 202° Southwest 396 456 29,500 1,166 Climbing FlightAware ADS-B (KPHL)
Tue 02:41:29 AM 39.3231 -74.1145 220° Southwest 367 422 33,200 1,528 Climbing FlightAware ADS-B (KPHL)
Tue 02:41:45 AM 39.2965 -74.1390 211° Southwest 375 432 33,600 1,500 Climbing FlightAware ADS-B (KWWD)
Tue 02:41:57 AM 39.2776 -74.1517 206° Southwest 376 433 33,900 1,333 Climbing FlightAware ADS-B (KWWD)
Tue 02:42:03 AM 39.2681 -74.1570 202° Southwest 382 440 34,000 1,021 Climbing FlightAware ADS-B (KWWD)
Tue 02:42:44 AM 39.2003 -74.1910 201° Southwest 391 450 34,700 833 Climbing FlightAware ADS-B (KPHL)
Tue 02:43:15 AM 39.1493 -74.2169 202° Southwest 400 460 35,000 590 Climbing FlightAware ADS-B (KPHL)
Tue 02:43:45 AM 39.0967 -74.2434 201° Southwest 405 466 35,300 787 Climbing FlightAware ADS-B (KPHL)
Tue 02:44:16 AM 39.0427 -74.2704 201° Southwest 405 466 35,800 1,313 Climbing FlightAware ADS-B (KPHL)
Tue 02:44:49 AM 38.9842 -74.2998 201° Southwest 394 453 36,700 1,538 Climbing FlightAware ADS-B (KWWD)
Tue 02:44:55 AM 38.9729 -74.3055 202° Southwest 384 442 36,800 1,610 Climbing FlightAware ADS-B (KWWD)
Tue 02:45:30 AM 38.9150 -74.3347 202° Southwest 381 438 37,800 947 Climbing FlightAware ADS-B (KWWD)
Tue 02:46:11 AM 38.8484 -74.3683 201° Southwest 384 442 38,000 136 Climbing FlightAware ADS-B (KWWD)
Tue 02:46:58 AM 38.7699 -74.4069 202° Southwest 383 441 38,000  Level FlightAware ADS-B (KWWD)
Tue 02:47:31 AM 38.7136 -74.4347 202° Southwest 385 443 38,000  Level FlightAware ADS-B (KWWD)
Tue 02:48:07 AM 38.6529 -74.4644 201° Southwest 393 452 38,000  Level FlightAware ADS-B (KWWD)
Tue 02:48:40 AM 38.5965 -74.4922 201° Southwest 394 453 38,000  Level FlightAware ADS-B (KWWD)
Tue 02:49:10 AM 38.5454 -74.5175 201° Southwest 394 453 38,000  Level FlightAware ADS-B (KWWD)
Tue 02:49:49 AM 38.4792 -74.5499 201° Southwest 396 456 38,000  Level FlightAware ADS-B (EGBB / BHX)
Tue 02:50:19 AM 38.4287 -74.5746 201° Southwest 397 457 38,000  Level FlightAware ADS-B (EGBB / BHX)
Tue 02:52:05 AM 38.2457 -74.6638 201° Southwest 400 460 38,000  Level FlightAware ADS-B (KWWD)
Tue 02:52:48 AM 38.1713 -74.7001 201° Southwest 400 460 38,000  Level FlightAware ADS-B (KWWD)
Tue 02:53:19 AM 38.1177 -74.7260 201° Southwest 394 453 38,000 -76 Level FlightAware ADS-B (KWWD)
Tue 02:54:07 AM 38.0431 -74.7639 201° Southwest 400 460 37,900  Descending Washington Center
Tue 02:55:07 AM 37.9411 -74.8178 203° Southwest 400 460 38,000 50 Climbing Washington Center
Tue 02:56:07 AM 37.8392 -74.8661 201° Southwest 400 460 38,000 -51 Level Washington Center
Tue 02:57:05 AM 37.7375 -74.9144 201° Southwest 400 460 37,900  Descending Washington Center
Tue 02:58:07 AM 37.6353 -74.9597 199° South 395 455 38,000  Climbing Washington Center
Tue 02:59:05 AM 37.5375 -75.0078 201° Southwest 390 449 37,900  Descending Washington Center
Tue 03:00:07 AM 37.4397 -75.0556 201° Southwest 390 449 38,000 50 Climbing Washington Center
Tue 03:01:05 AM 37.3442 -75.1008 201° Southwest 385 443 38,000  Level Washington Center
Tue 03:02:05 AM 37.2442 -75.1458 200° South 385 443 38,000  Level Washington Center
Tue 03:03:05 AM 37.1464 -75.1906 200° South 385 443 38,000 -50 Level Washington Center
Tue 03:04:05 AM 37.0506 -75.2381 202° Southwest 385 443 37,900  Descending Washington Center
Tue 03:05:06 AM 36.9547 -75.2825 200° South 380 437 38,000 49 Climbing Washington Center
Tue 03:06:08 AM 36.8567 -75.3272 200° South 380 437 38,000 -50 Level Washington Center
Tue 03:07:05 AM 36.7586 -75.3717 200° South 380 437 37,900  Descending Washington Center
Tue 03:08:07 AM 36.6608 -75.4183 201° Southwest 380 437 38,000  Climbing Washington Center
Tue 03:09:05 AM 36.5647 -75.4628 200° South 375 432 37,900  Descending Washington Center
Tue 03:10:05 AM 36.4689 -75.5094 201° Southwest 375 432 38,000 50 Climbing Washington Center
Tue 03:11:05 AM 36.3708 -75.5506 199° South 375 432 38,000  Level Washington Center
Tue 03:12:06 AM 36.2728 -75.5972 201° Southwest 375 432 38,000 -49 Level Washington Center
Tue 03:13:07 AM 36.1831 -75.6383 200° South 375 432 37,900  Descending Washington Center
Tue 03:14:05 AM 36.0872 -75.6819 200° South 375 432 38,000 50 Climbing Washington Center
Tue 03:15:08 AM 35.9869 -75.7256 199° South 375 432 38,000  Level Washington Center
Tue 03:16:05 AM 35.8867 -75.7714 200° South 380 437 38,000  Level Washington Center
Tue 03:17:07 AM 35.7864 -75.8175 200° South 380 437 38,000  Level Washington Center
Tue 03:18:05 AM 35.6861 -75.8631 200° South 385 443 38,000 -50 Level Washington Center
Tue 03:19:07 AM 35.5839 -75.9089 200° South 392 451 37,900 -49 Descending Washington Center
Tue 03:20:08 AM 35.4858 -75.9544 201° Southwest 387 445 37,900 51 Level Washington Center
Tue 03:21:05 AM 35.3853 -75.9972 199° South 387 445 38,000 50 Climbing Washington Center
Tue 03:22:07 AM 35.2850 -76.0450 201° Southwest 387 445 38,000  Level Washington Center
Tue 03:23:07 AM 35.1889 -76.0825 198° South 387 445 38,000  Level Washington Center
Tue 03:24:06 AM 35.0781 -76.1378 202° Southwest 387 445 38,000 -50 Level Washington Center
Tue 03:25:07 AM 34.9819 -76.1803 200° South 387 445 37,900 -50 Descending Washington Center
Tue 03:26:05 AM 34.8858 -76.2225 200° South 381 438 37,900 50 Level Washington Center
Tue 03:27:06 AM 34.7917 -76.2675 201° Southwest 371 427 38,000 49 Climbing Washington Center
Tue 03:28:07 AM 34.6953 -76.3094 200° South 371 427 38,000  Level Washington Center
Tue 03:29:06 AM 34.5950 -76.3517 199° South 378 435 38,000  Level Washington Center
Tue 03:30:07 AM 34.4947 -76.3936 199° South 378 435 38,000  Level Washington Center
Tue 03:31:06 AM 34.4025 -76.4378 202° Southwest 373 429 38,000 -51 Level Washington Center
Tue 03:32:05 AM 34.3000 -76.4772 198° South 373 429 37,900  Descending Washington Center
Tue 03:33:05 AM 34.2036 -76.5211 201° Southwest 373 429 38,000 50 Climbing Washington Center
Tue 03:34:05 AM 34.1075 -76.5603 199° South 373 429 38,000  Level Washington Center
Tue 03:35:05 AM 34.0153 -76.6042 202° Southwest 373 429 38,000  Level Washington Center
Tue 03:36:05 AM 33.9189 -76.6456 200° South 373 429 38,000  Level Washington Center
Tue 03:37:08 AM 33.8225 -76.6869 200° South 373 429 38,000  Level Washington Center
Tue 03:38:05 AM 33.7264 -76.7256 198° South 373 429 38,000  Level Washington Center
Tue 03:40:02 AM 33.5333 -76.8083 200° South 363 418 38,000  Level Jacksonville Center
Tue 03:41:02 AM 33.4353 -76.8525 201° Southwest 370 426 38,000 -50 Level Jacksonville Center
Tue 03:42:02 AM 33.3472 -76.8883 199° South 375 432 37,900 -50 Descending Jacksonville Center
Tue 03:43:02 AM 33.2408 -76.9353 200° South 388 447 37,900 50 Level Jacksonville Center
Tue 03:44:03 AM 33.1406 -76.9767 199° South 388 447 38,000  Climbing Jacksonville Center
Tue 03:45:02 AM 33.0383 -77.0231 201° Southwest 388 447 37,900 -50 Descending Jacksonville Center
Tue 03:46:02 AM 32.9381 -77.0642 199° South 393 452 37,900  Level Jacksonville Center
Tue 03:47:02 AM 32.8358 -77.1078 200° South 393 452 37,900  Level Jacksonville Center
Tue 03:48:02 AM 32.7353 -77.1464 198° South 393 452 37,900 50 Level Jacksonville Center
Tue 03:49:02 AM 32.6369 -77.1897 200° South 382 440 38,000 50 Climbing Jacksonville Center
Tue 03:50:02 AM 32.5367 -77.2328 200° South 377 434 38,000  Level Jacksonville Center
Tue 03:51:02 AM 32.4364 -77.2761 200° South 377 434 38,000 -50 Level Jacksonville Center
Tue 03:52:02 AM 32.3381 -77.3142 198° South 377 434 37,900 -50 Descending Jacksonville Center
Tue 03:53:02 AM 32.2372 -77.3522 198° South 382 440 37,900 50 Level Jacksonville Center
Tue 03:54:03 AM 32.1369 -77.3975 201° Southwest 376 433 38,000  Climbing Jacksonville Center
Tue 03:55:02 AM 32.0367 -77.4378 199° South 377 434 37,900  Descending Jacksonville Center
Tue 03:56:02 AM 31.9403 -77.4778 199° South 377 434 38,000 50 Climbing Jacksonville Center
Tue 03:57:02 AM 31.8397 -77.5178 199° South 377 434 38,000  Level Jacksonville Center
Tue 03:58:02 AM 31.7392 -77.5603 200° South 383 441 38,000  Level Jacksonville Center
Tue 03:59:02 AM 31.6386 -77.6003 199° South 377 434 38,000  Level Jacksonville Center
Tue 04:00:02 AM 31.5381 -77.6425 200° South 382 440 38,000 -50 Level Jacksonville Center
Tue 04:01:02 AM 31.4350 -77.6775 196° South 382 440 37,900 -50 Descending Jacksonville Center
Tue 04:02:02 AM 31.3347 -77.7269 203° Southwest 382 440 37,900  Level Jacksonville Center
Tue 04:03:02 AM 31.2322 -77.7692 199° South 387 445 37,900  Level Jacksonville Center
Tue 04:04:02 AM 31.1292 -77.8039 196° South 387 445 37,900 50 Level Jacksonville Center
Tue 04:05:02 AM 31.0289 -77.8528 203° Southwest 387 445 38,000 50 Climbing Jacksonville Center
Tue 04:06:02 AM 30.9278 -77.8825 194° South 379 436 38,000 -50 Level Jacksonville Center
Tue 04:07:02 AM 30.8253 -77.9267 200° South 384 442 37,900  Descending Jacksonville Center
Tue 04:08:44 AM 30.6425 -78.0053 200° South 381 438 38,000 37 Climbing Miami Center
Tue 04:09:43 AM 30.5381 -78.0478 199° South 393 452 38,000  Level Miami Center
Tue 04:10:46 AM 30.4419 -78.0922 202° Southwest 404 465 38,000 -50 Level Miami Center
Tue 04:11:43 AM 30.3311 -78.1175 191° South 404 465 37,900 -51 Descending Miami Center
Tue 04:12:43 AM 30.2286 -78.1544 197° South 394 453 37,900  Level Miami Center
Tue 04:13:45 AM 30.1219 -78.1942 198° South 382 440 37,900  Level Miami Center
Tue 04:14:43 AM 30.0361 -78.2339 202° Southwest 375 432 37,900  Level Miami Center
Tue 04:15:43 AM 29.9544 -78.2781 205° Southwest 364 419 37,900  Level Miami Center
Tue 04:16:43 AM 29.8725 -78.3322 210° Southwest 358 412 37,900  Level Miami Center
Tue 04:17:45 AM 29.7742 -78.3714 199° South 359 413 37,900  Level Miami Center
Tue 04:18:44 AM 29.6839 -78.4156 203° Southwest 359 413 37,900  Level Miami Center
Tue 04:19:43 AM 29.5792 -78.4475 195° South 364 419 37,900 14 Level Miami Center
Tue 04:25:55 AM 28.8608 -78.5314 186° South 424 488 38,000 10 Climbing FlightAware ADS-B
Tue 04:29:47 AM 28.4025 -78.5843 186° South 433 498 38,000  Level FlightAware ADS-B
Tue 04:30:28 AM 28.3224 -78.5933 186° South 434 499 38,000  Level FlightAware ADS-B
Tue 04:31:12 AM 28.2335 -78.6035 186° South 438 504 38,000  Level FlightAware ADS-B
Tue 04:31:52 AM 28.1599 -78.6119 186° South 437 503 38,000  Level FlightAware ADS-B
Tue 04:32:23 AM 28.0907 -78.6198 186° South 438 504 38,000  Level FlightAware ADS-B
Tue 04:33:02 AM 28.0101 -78.6290 186° South 438 504 38,000  Level FlightAware ADS-B
Tue 04:33:33 AM 27.9481 -78.6360 186° South 438 504 38,000  Level FlightAware ADS-B
Tue 04:34:25 AM 27.8579 -78.6463 186° South 437 503 38,000  Level FlightAware ADS-B
Tue 04:35:04 AM 27.7471 -78.6590 185° South 436 502 38,000  Level FlightAware ADS-B
Tue 04:35:16 AM 27.7274 -78.6612 185° South 436 502 38,000  Level FlightAware ADS-B
Tue 04:35:46 AM 27.6836 -78.6661 186° South 436 502 38,000  Level FlightAware ADS-B
Tue 04:36:23 AM 27.6065 -78.6750 186° South 435 501 38,000  Level FlightAware ADS-B
Tue 04:37:07 AM 27.5188 -78.6848 186° South 436 502 38,000  Level FlightAware ADS-B
Tue 04:37:46 AM 27.4403 -78.6938 186° South 435 501 38,000  Level FlightAware ADS-B
Tue 04:38:17 AM 27.3778 -78.7009 186° South 435 501 38,000  Level FlightAware ADS-B
Tue 04:38:57 AM 27.2966 -78.7101 186° South 437 503 38,000  Level FlightAware ADS-B
Tue 04:39:38 AM 27.2138 -78.7190 186° South 438 504 38,000  Level FlightAware ADS-B
Tue 04:40:08 AM 27.1547 -78.7255 186° South 437 503 38,000  Level FlightAware ADS-B
Tue 04:40:38 AM 27.0936 -78.7325 186° South 437 503 38,000  Level FlightAware ADS-B
Tue 04:41:18 AM 27.0142 -78.7416 186° South 439 505 38,000  Level FlightAware ADS-B
Tue 04:41:57 AM 26.9321 -78.7505 185° South 443 510 38,000  Level FlightAware ADS-B
Tue 04:42:27 AM 26.8709 -78.7573 186° South 444 511 38,000  Level FlightAware ADS-B
Tue 04:42:58 AM 26.8113 -78.7639 186° South 447 514 38,000  Level FlightAware ADS-B
Tue 04:43:28 AM 26.7451 -78.7715 186° South 452 520 38,000  Level FlightAware ADS-B
Tue 04:44:08 AM 26.6623 -78.7807 186° South 452 520 38,000  Level FlightAware ADS-B
Tue 04:46:26 AM 26.3790 -78.8121 186° South 452 520 38,000  Level FlightAware ADS-B
Tue 04:46:56 AM 26.2944 -78.8214 185° South 452 520 38,000  Level FlightAware ADS-B
Tue 04:47:36 AM 26.2165 -78.8299 185° South 451 519 38,000  Level FlightAware ADS-B
Tue 04:48:13 AM 26.1320 -78.8393 185° South 450 518 38,000 441 Level FlightAware ADS-B
Tue 04:48:44 AM 26.0692 -78.8462 185° South 448 516 38,500 723 Climbing FlightAware ADS-B
Tue 04:49:36 AM 25.9653 -78.8576 185° South 446 513 39,000 323 Climbing FlightAware ADS-B
Tue 04:50:17 AM 25.8838 -78.8667 185° South 447 514 39,000  Level FlightAware ADS-B
Tue 04:50:57 AM 25.8000 -78.8758 185° South 448 516 39,000  Level FlightAware ADS-B
Tue 04:51:34 AM 25.7237 -78.8842 185° South 449 517 39,000  Level FlightAware ADS-B
Tue 04:52:07 AM 25.6500 -78.8921 185° South 450 518 39,000  Level FlightAware ADS-B
Tue 04:52:47 AM 25.5726 -78.9006 185° South 450 518 39,000  Level FlightAware ADS-B
Tue 04:53:24 AM 25.4952 -78.9089 185° South 452 520 39,000  Level FlightAware ADS-B
Tue 04:53:57 AM 25.4275 -78.9164 185° South 453 521 39,000  Level FlightAware ADS-B
Tue 04:54:43 AM 25.3636 -78.9264 185° South 444 511 39,000  Level Miami Center
Tue 04:55:43 AM 25.2381 -78.9403 186° South 456 525 39,000  Level Miami Center
Tue 04:56:43 AM 25.1083 -78.9519 185° South 461 531 39,000  Level Miami Center
Tue 04:57:44 AM 24.9786 -78.9633 185° South 469 540 39,000  Level Miami Center
Tue 04:58:43 AM 24.8531 -78.9772 186° South 469 540 39,000  Level Miami Center
Tue 04:59:43 AM 24.7253 -78.9911 186° South 459 528 39,000  Level Miami Center
Tue 05:00:44 AM 24.5936 -79.0003 184° South 464 534 39,000  Level Miami Center
Tue 05:01:45 AM 24.4661 -79.0050 182° South 470 541 39,000  Level Miami Center
Tue 05:02:43 AM 24.3344 -79.0094 182° South 465 535 39,000  Level Miami Center
Tue 05:03:45 AM 24.1964 -79.0164 183° South 465 535 39,000  Level Miami Center
Tue 05:04:43 AM 24.0689 -79.0164 180° South 454 522 39,000 -77 Level Miami Center
Tue 05:06:00 AM 23.9262 -79.0691 182° South  Level FlightAware Approximate
Tue 05:13:00 AM 23.1137 -79.0962 182° South  Level FlightAware Approximate
Tue 05:14:00 AM 22.9977 -79.1001 181° South  Level FlightAware Approximate
Tue 05:15:00 AM 22.8816 -79.1032 181° South  Level FlightAware Approximate
Tue 05:16:00 AM 22.7655 -79.1063 181° South  Level FlightAware Approximate
Tue 05:17:00 AM 22.6494 -79.1094 181° South  Level FlightAware Approximate
Tue 05:18:00 AM 22.5333 -79.1125 181° South  Level FlightAware Approximate
Tue 05:19:00 AM 22.4172 -79.1156 181° South  Level FlightAware Approximate
Tue 05:20:00 AM 22.3011 -79.1187 181° South  Level FlightAware Approximate
Tue 05:21:00 AM 22.1850 -79.1218 181° South  Level FlightAware Approximate
Tue 05:22:00 AM 22.0689 -79.1249 181° South  Level FlightAware Approximate
Tue 05:23:00 AM 21.9529 -79.1280 181° South  Level FlightAware Approximate
Tue 05:24:00 AM 21.8368 -79.1310 181° South  Level FlightAware Approximate
Tue 05:25:00 AM 21.7207 -79.1343 182° South  Level FlightAware Approximate
Tue 05:26:00 AM 21.6046 -79.1382 182° South  Level FlightAware Approximate
Tue 05:27:00 AM 21.4885 -79.1421 182° South  Level FlightAware Approximate
Tue 05:28:00 AM 21.3725 -79.1459 182° South  Level FlightAware Approximate
Tue 05:29:00 AM 21.2564 -79.1498 182° South  Level FlightAware Approximate
Tue 05:30:00 AM 21.1403 -79.1500 180° South  Level FlightAware Approximate
Tue 05:31:00 AM 21.0242 -79.1500 180° South  Level FlightAware Approximate
Tue 05:32:00 AM 20.9082 -79.1561 184° South  Level FlightAware Approximate
Tue 05:33:00 AM 20.7923 -79.1638 184° South  Level FlightAware Approximate
Tue 05:34:00 AM 20.6763 -79.1683 181° South  Level FlightAware Approximate
Tue 05:35:00 AM 20.5602 -79.1709 181° South  Level FlightAware Approximate
Tue 05:36:00 AM 20.4441 -79.1735 181° South  Level FlightAware Approximate
Tue 05:37:00 AM 20.3280 -79.1761 181° South  Level FlightAware Approximate
Tue 05:38:00 AM 20.2119 -79.1786 181° South  Level FlightAware Approximate
Tue 05:39:00 AM 20.0958 -79.1812 181° South  Level FlightAware Approximate
Tue 05:40:00 AM 19.9797 -79.1840 182° South  Level FlightAware Approximate
Tue 05:41:00 AM 19.8636 -79.1875 182° South  Level FlightAware Approximate
Tue 05:42:00 AM 19.7475 -79.1911 182° South  Level FlightAware Approximate
Tue 05:43:00 AM 19.6315 -79.1947 182° South  Level FlightAware Approximate
Tue 05:44:00 AM 19.5154 -79.1982 182° South  Level FlightAware Approximate
Tue 05:45:00 AM 19.3993 -79.2018 182° South  Level FlightAware Approximate
Tue 05:46:00 AM 19.2832 -79.2054 182° South  Level FlightAware Approximate
Tue 05:47:00 AM 19.1672 -79.2089 182° South  Level FlightAware Approximate
Tue 05:48:00 AM 19.0511 -79.2125 182° South  Level FlightAware Approximate
Tue 05:49:00 AM 18.9350 -79.2160 182° South  Level FlightAware Approximate
Tue 05:50:00 AM 18.8189 -79.2195 182° South  Level FlightAware Approximate
Tue 05:51:00 AM 18.7029 -79.2231 182° South  Level FlightAware Approximate
Tue 05:52:00 AM 18.5868 -79.2266 182° South  Level FlightAware Approximate
Tue 05:53:00 AM 18.4707 -79.2301 182° South  Level FlightAware Approximate
Tue 05:54:00 AM 18.3546 -79.2336 182° South  Level FlightAware Approximate
Tue 05:55:00 AM 18.2385 -79.2371 182° South  Level FlightAware Approximate
Tue 05:56:00 AM 18.1225 -79.2406 182° South  Level FlightAware Approximate
Tue 05:57:00 AM 18.0064 -79.2441 182° South  Level FlightAware Approximate
Tue 05:58:00 AM 17.8903 -79.2476 182° South  Level FlightAware Approximate
Tue 05:59:00 AM 17.7742 -79.2511 182° South  Level FlightAware Approximate
Tue 06:00:00 AM 17.6582 -79.2546 182° South  Level FlightAware Approximate
Tue 06:01:00 AM 17.5421 -79.2581 182° South  Level FlightAware Approximate
Tue 06:02:00 AM 17.4260 -79.2616 182° South  Level FlightAware Approximate
Tue 06:03:00 AM 17.3099 -79.2651 182° South  Level FlightAware Approximate
Tue 06:04:00 AM 17.1938 -79.2685 182° South  Level FlightAware Approximate
Tue 06:05:00 AM 17.0778 -79.2720 182° South  Level FlightAware Approximate
Tue 06:06:00 AM 16.9617 -79.2755 182° South  Level FlightAware Approximate
Tue 06:07:00 AM 16.8456 -79.2789 182° South  Level FlightAware Approximate
Tue 06:08:00 AM 16.7295 -79.2824 182° South  Level FlightAware Approximate
Tue 06:09:00 AM 16.6135 -79.2858 182° South  Level FlightAware Approximate
Tue 06:10:00 AM 16.4974 -79.2893 182° South  Level FlightAware Approximate
Tue 06:11:00 AM 16.3813 -79.2927 182° South  Level FlightAware Approximate
Tue 06:12:00 AM 16.2652 -79.2961 182° South  Level FlightAware Approximate
Tue 06:13:00 AM 16.1492 -79.2996 182° South  Level FlightAware Approximate
Tue 06:14:00 AM 16.0331 -79.3030 182° South  Level FlightAware Approximate
Tue 06:15:00 AM 15.9170 -79.3064 182° South  Level FlightAware Approximate
Tue 06:16:00 AM 15.8009 -79.3098 182° South  Level FlightAware Approximate
Tue 06:17:00 AM 15.6848 -79.3133 182° South  Level FlightAware Approximate
Tue 06:18:00 AM 15.5688 -79.3167 182° South  Level FlightAware Approximate
Tue 06:19:00 AM 15.4527 -79.3201 182° South  Level FlightAware Approximate
Tue 06:20:00 AM 15.3366 -79.3235 182° South  Level FlightAware Approximate
Tue 06:21:00 AM 15.2205 -79.3269 182° South  Level FlightAware Approximate
Tue 06:22:00 AM 15.1045 -79.3303 182° South  Level FlightAware Approximate
Tue 06:23:00 AM 14.9884 -79.3336 181° South  Level FlightAware Approximate
Tue 06:24:00 AM 14.8723 -79.3368 181° South  Level FlightAware Approximate
Tue 06:25:00 AM 14.7562 -79.3399 181° South  Level FlightAware Approximate
Tue 06:26:00 AM 14.6401 -79.3430 181° South  Level FlightAware Approximate
Tue 06:27:00 AM 14.5240 -79.3461 181° South  Level FlightAware Approximate
Tue 06:28:00 AM 14.4080 -79.3492 181° South  Level FlightAware Approximate
Tue 06:29:00 AM 14.2919 -79.3523 181° South  Level FlightAware Approximate
Tue 06:30:00 AM 14.1758 -79.3553 181° South  Level FlightAware Approximate
Tue 06:31:00 AM 14.0597 -79.3584 181° South  Level FlightAware Approximate
Tue 06:32:00 AM 13.9436 -79.3615 181° South  Level FlightAware Approximate
Tue 06:33:00 AM 13.8275 -79.3646 181° South  Level FlightAware Approximate
Tue 06:34:00 AM 13.7114 -79.3677 181° South  Level FlightAware Approximate
Tue 06:35:00 AM 13.5953 -79.3708 181° South  Level FlightAware Approximate
Tue 06:36:00 AM 13.4793 -79.3738 181° South  Level FlightAware Approximate
Tue 06:37:00 AM 13.3632 -79.3769 181° South  Level FlightAware Approximate
Tue 06:38:00 AM 13.2471 -79.3800 181° South  Level FlightAware Approximate
Tue 06:39:00 AM 13.1310 -79.3830 181° South  Level FlightAware Approximate
Tue 06:40:00 AM 13.0149 -79.3861 181° South  Level FlightAware Approximate
Tue 06:41:00 AM 12.8988 -79.3892 181° South  Level FlightAware Approximate
Tue 06:42:00 AM 12.7827 -79.3922 181° South  Level FlightAware Approximate
Tue 06:43:00 AM 12.6667 -79.3953 181° South  Level FlightAware Approximate
Tue 06:44:00 AM 12.5506 -79.3983 181° South  Level FlightAware Approximate
Tue 06:45:00 AM 12.4345 -79.4014 181° South  Level FlightAware Approximate
Tue 06:46:00 AM 12.3184 -79.4044 181° South  Level FlightAware Approximate
Tue 06:47:00 AM 12.2023 -79.4074 181° South  Level FlightAware Approximate
Tue 06:48:00 AM 12.0862 -79.4105 181° South  Level FlightAware Approximate
Tue 06:49:00 AM 11.9701 -79.4135 181° South  Level FlightAware Approximate
Tue 06:50:00 AM 11.8540 -79.4166 181° South  Level FlightAware Approximate
Tue 06:51:00 AM 11.7380 -79.4218 183° South  Level FlightAware Approximate
Tue 06:51:38 AM 10.3470 -79.4756 184° South 505 581 30,700  Level FlightAware ADS-B
Tue 06:52:00 AM 11.6220 -79.4270 183° South  Level FlightAware Approximate
Tue 06:52:09 AM 10.2852 -79.4794 184° South 502 578 29,200  Level FlightAware ADS-B
Tue 06:53:08 AM 10.1426 -79.4873 184° South 480 552 26,600 -2,804 Descending FlightAware ADS-B
Tue 06:53:41 AM 10.0707 -79.4912 184° South 480 552 24,900 -2,459 Descending FlightAware ADS-B
Tue 06:54:09 AM 10.0148 -79.4942 184° South 480 552 24,100 -1,552 Descending FlightAware ADS-B
Tue 06:54:39 AM 9.9522 -79.4978 184° South 424 488 23,400 -1,869 Descending FlightAware ADS-B
Tue 06:55:10 AM 9.8908 -79.5001 177° South 413 475 22,200 -2,308 Descending FlightAware ADS-B
Tue 06:55:31 AM 9.8509 -79.4941 166° South 405 466 21,400 -2,353 Descending FlightAware ADS-B
Tue 06:56:01 AM 9.8009 -79.4749 155° Southeast 395 455 20,200 -2,483 Descending FlightAware ADS-B
Tue 06:56:29 AM 9.7561 -79.4547 155° Southeast 393 452 19,000 -2,333 Descending FlightAware ADS-B
Tue 06:56:55 AM 9.7115 -79.4343 155° Southeast 385 443 18,100 -2,100 Descending FlightAware ADS-B
Tue 06:57:29 AM 9.6561 -79.4092 155° Southeast 374 430 16,900 -2,105 Descending FlightAware ADS-B
Tue 06:57:52 AM 9.6223 -79.3939 155° Southeast 367 422 16,100 -1,533 Descending FlightAware ADS-B
Tue 06:58:59 AM 9.5175 -79.3639 171° South 323 372 14,600 -1,052 Descending FlightAware ADS-B
Tue 06:59:29 AM 9.4761 -79.3581 171° South 286 329 14,400 -628 Descending FlightAware ADS-B
Tue 07:00:25 AM 9.4082 -79.3485 171° South 260 299 13,700 -1,024 Descending FlightAware ADS-B
Tue 07:00:51 AM 9.3786 -79.3445 172° South 265 305 13,000 -1,193 Descending FlightAware ADS-B
Tue 07:03:26 AM 9.1932 -79.3184 172° South 254 292 10,100 -883 Descending FlightAware ADS-B
Tue 07:07:59 AM 8.9023 -79.3606 208° Southwest 230 265 6,700 -742 Descending FlightAware ADS-B
Tue 07:08:00 AM 9.0714 -79.3835 166° South  Level Estimated
Tue 07:08:25 AM 8.8783 -79.3733 208° Southwest 228 262 6,400  Level FlightAware ADS-B
Tue 07:08:42 AM 8.8635 -79.3812 209° Southwest 227 261 6,200 -828 Descending FlightAware ADS-B
Tue 07:08:54 AM 8.8500 -79.3882 208° Southwest 230 265 6,000 -1,034 Descending FlightAware ADS-B
Tue 07:09:11 AM 8.8335 -79.3965 207° Southwest 234 269 5,700 -1,000 Descending FlightAware ADS-B
Tue 07:09:24 AM 8.8213 -79.4024 206° Southwest 236 272 5,500 -923 Descending FlightAware ADS-B
Tue 07:09:37 AM 8.8106 -79.4086 215° Southwest 230 265 5,300 -1,059 Descending FlightAware ADS-B
Tue 07:09:41 AM 8.8070 -79.4123 228° Southwest 224 258 5,200 -857 Descending FlightAware ADS-B
Tue 07:09:51 AM 8.8024 -79.4206 250° West 215 247 5,100 -823 Descending FlightAware ADS-B
Tue 07:11:45 AM 8.8237 -79.4912 293° West 187 215 3,500 -831 Descending FlightAware ADS-B
Tue 07:12:01 AM 8.8372 -79.4880 13° North 175 201 3,300 -581 Descending FlightAware ADS-B
Tue 07:12:16 AM 8.8494 -79.4852 13° North 176 203 3,200 -600 Descending FlightAware ADS-B
Tue 07:12:31 AM 8.8610 -79.4825 12° North 178 205 3,000 -712 Descending FlightAware ADS-B
Tue 07:13:15 AM 8.8961 -79.4722 25° Northeast 173 199 2,500 -800 Descending FlightAware ADS-B
Tue 07:13:31 AM 8.9071 -79.4669 25° Northeast 174 200 2,200 -968 Descending FlightAware ADS-B
Tue 07:13:46 AM 8.9178 -79.4618 26° Northeast 174 200 2,000 -857 Descending FlightAware ADS-B
Tue 07:14:06 AM 8.9294 -79.4561 26° Northeast 172 198 1,700 -450 Descending FlightAware ADS-B
Tue 07:14:26 AM 8.9466 -79.4491 21° North 157 181 1,700  Level FlightAware ADS-B
Tue 07:14:45 AM 8.9578 -79.4440 24° Northeast 150 173 1,700 -222 Level FlightAware ADS-B
Tue 07:15:20 AM 8.9794 -79.4319 33° Northeast 150 173 1,500 -545 Descending FlightAware ADS-B
Tue 07:15:40 AM 8.9860 -79.4275 32° Northeast 145 167 1,200 -732 Descending FlightAware ADS-B
Tue 07:16:01 AM 9.0023 -79.4181 27° Northeast 146 168 1,000 -667 Descending FlightAware ADS-B
Tue 07:16:16 AM 9.0113 -79.4134 28° Northeast 147 169 800 -735 Descending FlightAware ADS-B
Tue 07:16:50 AM 9.0319 -79.4015 28° Northeast 148 170 400 -706 Descending FlightAware ADS-B
Tue 07:19:00 AM 9.0667 -79.3667 166° South  Level FlightAware Approximate
Tue 07:20:00 AM 9.0714 -79.3835 166° South  Level Estimated
Tue 07:21:00 AM 9.0714 -79.3835 166° South  Level Estimated
Tue 07:22:00 AM 9.0714 -79.3835 166° South  Level Estimated
Tue 07:23:00 AM 9.0714 -79.3835 166° South  Level Estimated

Login

Don't have an account? Register now (free) for customized features, flight alerts, and more!